Time;durP1;ratioP1;P1;durP2;ratioP2;P2;SDS_P1;SDS_P2;PMS_P1;PMS_P2;Temp;Humidity;BMP_temperature;BMP_pressure;BME280_temperature;BME280_humidity;BME280_pressure;Samples;Min_cycle;Max_cycle;Signal;HPM_P1;HPM_P2
2021/01/11 00:00:57;;;;;;;15.78;7.45;;;;;;;17.30;42.63;155671.11;1621021;88;21214;-64
2021/01/11 00:03:29;;;;;;;18.23;8.15;;;;;;;17.21;42.59;155645.98;1616178;88;21754;-66
2021/01/11 00:06:02;;;;;;;14.85;7.00;;;;;;;17.08;42.93;155611.70;1626481;87;21278;-65
2021/01/11 00:08:34;;;;;;;16.50;7.50;;;;;;;17.12;43.01;155620.97;1655123;86;21210;-65
2021/01/11 00:11:08;;;;;;;15.43;7.72;;;;;;;18.39;41.54;155958.78;1653260;86;21191;-64
2021/01/11 00:13:44;;;;;;;20.30;8.75;;;;;;;18.74;40.79;156052.50;1620715;88;21401;-64
2021/01/11 00:16:17;;;;;;;18.35;7.67;;;;;;;19.21;40.10;156176.69;1658161;86;21179;-64
2021/01/11 00:18:49;;;;;;;17.17;7.85;;;;;;;18.92;40.34;156098.70;1661172;86;21250;-65
2021/01/11 00:21:22;;;;;;;17.23;8.65;;;;;;;19.57;39.79;156271.81;1650652;86;21246;-65
2021/01/11 00:23:55;;;;;;;14.47;7.35;;;;;;;19.76;39.18;156322.00;1639852;87;21226;-65
2021/01/11 00:26:27;;;;;;;15.78;7.25;;;;;;;18.48;40.59;155982.53;1619966;88;21845;-65
2021/01/11 00:29:00;;;;;;;21.70;8.80;;;;;;;17.81;41.81;155805.67;1620213;88;21246;-65
2021/01/11 00:31:32;;;;;;;18.92;9.00;;;;;;;17.68;42.13;155771.36;1623798;88;21191;-67
2021/01/11 00:34:05;;;;;;;18.87;9.25;;;;;;;17.50;42.28;155723.84;1661918;86;21258;-66
2021/01/11 00:36:38;;;;;;;19.32;8.13;;;;;;;17.54;42.19;155733.06;1625331;87;21195;-64
2021/01/11 00:39:11;;;;;;;19.27;8.60;;;;;;;17.46;42.34;155711.98;1665718;86;21229;-64
2021/01/11 00:41:44;;;;;;;21.25;9.20;;;;;;;17.25;42.55;155656.56;1663784;86;21253;-66
2021/01/11 00:44:16;;;;;;;18.90;8.58;;;;;;;17.26;42.58;155660.50;1657552;86;21206;-65
2021/01/11 00:46:49;;;;;;;18.85;8.95;;;;;;;17.15;42.71;155630.19;1654666;86;21428;-64
2021/01/11 00:49:21;;;;;;;18.25;8.48;;;;;;;17.05;42.35;155603.83;1630239;88;21447;-64
2021/01/11 00:51:53;;;;;;;18.32;8.53;;;;;;;16.99;42.52;155587.98;1623187;88;21378;-66
2021/01/11 00:54:26;;;;;;;19.95;8.50;;;;;;;17.18;42.48;155638.12;1654702;86;21274;-66
2021/01/11 00:56:59;;;;;;;16.85;7.62;;;;;;;17.31;42.36;155672.41;1655779;86;21353;-65
2021/01/11 00:59:49;;;;;;;16.60;7.62;;;;;;;17.40;42.30;155696.19;1655721;86;21285;-64
2021/01/11 01:02:23;;;;;;;14.30;7.95;;;;;;;17.41;42.11;155698.83;1655712;86;21329;-64
2021/01/11 01:04:56;;;;;;;16.35;8.10;;;;;;;17.40;42.06;155697.47;1612064;88;21408;-64
2021/01/11 01:07:28;;;;;;;19.02;9.08;;;;;;;17.44;41.96;155706.70;1622741;88;21474;-65
2021/01/11 01:10:01;;;;;;;15.65;8.88;;;;;;;17.29;42.14;155667.17;1654255;86;21437;-65
2021/01/11 01:12:34;;;;;;;17.87;7.45;;;;;;;17.17;42.27;155634.13;1654668;86;21352;-64
2021/01/11 01:15:10;;;;;;;18.92;7.95;;;;;;;17.19;42.25;155640.70;1654629;86;21690;-65
2021/01/11 01:17:43;;;;;;;17.27;6.83;;;;;;;17.23;42.02;155651.28;1659601;86;21241;-65
2021/01/11 01:20:17;;;;;;;13.80;7.00;;;;;;;17.35;41.85;155682.97;1659113;86;21246;-65
2021/01/11 01:22:56;;;;;;;17.65;7.85;;;;;;;17.34;41.66;155680.33;1656698;86;21211;-64
2021/01/11 01:25:23;;;;;;;16.50;7.25;;;;;;;17.21;41.78;155645.98;1655827;86;21211;-65
2021/01/11 01:27:55;;;;;;;16.17;7.10;;;;;;;17.14;41.75;155626.20;1657142;86;21247;-64
2021/01/11 01:30:27;;;;;;;13.93;7.58;;;;;;;16.78;42.16;155532.62;1656684;86;21299;-64
2021/01/11 01:33:00;;;;;;;16.12;7.40;;;;;;;17.02;41.99;155595.91;1624700;86;21231;-66
2021/01/11 01:35:34;;;;;;;14.47;6.60;;;;;;;17.01;42.06;155591.97;1654364;86;21404;-65
2021/01/11 01:38:07;;;;;;;17.40;7.87;;;;;;;16.71;42.28;155512.84;1657086;86;21186;-70
2021/01/11 01:40:45;;;;;;;17.30;8.10;;;;;;;16.73;42.27;155518.13;1653127;86;21344;-65
2021/01/11 01:43:14;;;;;;;15.10;6.95;;;;;;;16.75;42.18;155524.70;1663511;86;21210;-64
2021/01/11 01:45:47;;;;;;;16.37;7.85;;;;;;;16.67;42.35;155503.63;1631555;88;21356;-64
2021/01/11 01:48:19;;;;;;;14.50;7.10;;;;;;;16.49;42.60;155454.88;1619140;88;21318;-64
2021/01/11 01:50:52;;;;;;;14.55;6.58;;;;;;;16.91;42.10;155565.56;1635253;86;21340;-64
2021/01/11 01:53:24;;;;;;;16.20;6.72;;;;;;;16.67;42.20;155502.28;1630648;88;21352;-64
2021/01/11 01:55:58;;;;;;;14.80;6.80;;;;;;;16.89;41.97;155560.33;1656391;86;21392;-66
2021/01/11 01:58:31;;;;;;;17.50;6.97;;;;;;;16.61;42.33;155486.50;1624445;88;21266;-66
2021/01/11 02:01:04;;;;;;;16.02;6.58;;;;;;;16.46;42.55;155448.30;1655669;86;21309;-65
2021/01/11 02:03:38;;;;;;;13.85;6.92;;;;;;;16.36;42.67;155420.59;1626849;88;21222;-64
2021/01/11 02:06:10;;;;;;;14.10;6.80;;;;;;;16.49;42.58;155456.16;1655985;86;21340;-64
2021/01/11 02:09:03;;;;;;;21.87;8.68;;;;;;;16.51;42.53;155461.44;1634688;87;21370;-65
2021/01/11 02:11:53;;;;;;;22.55;8.93;;;;;;;16.30;42.60;155404.81;1662974;86;21350;-65
2021/01/11 02:14:41;;;;;;;16.65;7.53;;;;;;;16.30;42.57;155406.11;1660081;86;21689;-65
2021/01/11 02:17:21;;;;;;;15.05;7.53;;;;;;;16.25;42.61;155390.28;1656398;86;21242;-67
2021/01/11 02:20:19;;;;;;;16.50;7.53;;;;;;;16.22;42.67;155382.36;1654664;87;21210;-65
2021/01/11 02:23:13;;;;;;;17.42;8.03;;;;;;;16.25;42.58;155391.56;1635783;86;21219;-64
2021/01/11 02:26:30;;;;;;;16.93;8.13;;;;;;;16.26;42.72;155392.91;1615263;88;21259;-65
2021/01/11 02:29:15;;;;;;;18.55;8.68;;;;;;;16.12;42.95;155356.02;1624206;88;21333;-64
2021/01/11 02:31:48;;;;;;;18.32;8.33;;;;;;;16.32;42.49;155411.39;1658130;86;21286;-66
2021/01/11 02:34:21;;;;;;;16.55;7.65;;;;;;;16.38;42.33;155427.17;1656080;86;21333;-64
2021/01/11 02:36:54;;;;;;;20.45;8.88;;;;;;;16.41;42.44;155433.81;1628236;86;21381;-64
2021/01/11 02:39:26;;;;;;;19.05;7.83;;;;;;;16.54;42.39;155469.36;1654722;86;21389;-65
2021/01/11 02:41:59;;;;;;;16.23;8.83;;;;;;;16.57;42.37;155477.28;1654583;87;21396;-65
2021/01/11 02:44:32;;;;;;;19.48;8.63;;;;;;;16.55;42.49;155472.00;1654392;86;21372;-67
2021/01/11 02:47:04;;;;;;;21.15;9.55;;;;;;;16.57;42.17;155475.94;1654761;86;21238;-65
2021/01/11 02:49:41;;;;;;;18.67;8.58;;;;;;;16.50;42.08;155457.50;1653232;86;21384;-65
2021/01/11 02:52:22;;;;;;;16.87;7.95;;;;;;;16.42;42.29;155437.73;1627071;87;21794;-65
2021/01/11 02:55:03;;;;;;;;;;;;;;;16.41;42.46;155433.81;1592427;90;21373;-66
2021/01/11 02:57:46;;;;;;;19.87;8.35;;;;;;;16.53;42.48;155465.42;1589965;89;20233;-64
2021/01/11 03:00:20;;;;;;;19.77;8.28;;;;;;;16.67;42.39;155502.28;1609672;89;21286;-65
2021/01/11 03:02:52;;;;;;;19.48;8.68;;;;;;;16.71;42.15;155514.19;1596994;89;21352;-65
2021/01/11 03:05:25;;;;;;;17.50;9.25;;;;;;;16.73;42.41;155518.13;1634886;87;21436;-65
2021/01/11 03:07:59;;;;;;;19.55;8.48;;;;;;;16.82;42.50;155543.19;1627349;87;21375;-65
2021/01/11 03:10:31;;;;;;;19.62;8.23;;;;;;;16.94;42.38;155573.48;1607321;88;21248;-65
2021/01/11 03:13:04;;;;;;;17.05;8.38;;;;;;;17.04;42.43;155599.84;1591593;89;21255;-65
2021/01/11 03:15:36;;;;;;;17.75;7.05;;;;;;;17.08;42.47;155610.41;1606331;89;21353;-65
2021/01/11 03:18:10;;;;;;;18.90;9.03;;;;;;;17.07;41.89;155607.77;1645653;87;21303;-65
2021/01/11 03:20:42;;;;;;;17.80;7.55;;;;;;;16.66;41.46;155499.69;1644484;87;21784;-64
2021/01/11 03:23:15;;;;;;;16.17;7.25;;;;;;;16.46;42.38;155448.30;1640111;87;21288;-64
2021/01/11 03:25:48;;;;;;;15.72;7.97;;;;;;;16.54;42.83;155469.36;1645036;87;21259;-65
2021/01/11 03:28:20;;;;;;;16.07;7.55;;;;;;;16.75;42.77;155523.41;1630218;87;21181;-64
2021/01/11 03:30:52;;;;;;;14.85;7.72;;;;;;;16.75;42.80;155523.41;1641951;87;21263;-65
2021/01/11 03:33:25;;;;;;;16.32;7.08;;;;;;;16.87;42.69;155555.05;1641101;87;21262;-65
2021/01/11 03:36:01;;;;;;;18.95;8.45;;;;;;;16.80;42.37;155537.91;1601585;88;21215;-65
2021/01/11 03:38:33;;;;;;;15.95;7.10;;;;;;;16.69;42.71;155508.92;1633729;87;21952;-65
2021/01/11 03:41:07;;;;;;;14.13;6.47;;;;;;;16.68;42.12;155504.92;1638189;87;21349;-64
2021/01/11 03:43:40;;;;;;;13.25;7.10;;;;;;;16.52;42.31;155462.78;1639125;87;21252;-65
2021/01/11 03:46:15;;;;;;;15.70;6.62;;;;;;;16.47;42.85;155450.94;1636264;87;21212;-64
2021/01/11 03:48:47;;;;;;;15.65;7.00;;;;;;;16.57;41.93;155475.94;1635157;88;21248;-67
2021/01/11 03:51:19;;;;;;;17.20;7.85;;;;;;;16.42;42.53;155436.44;1638763;87;21235;-67
2021/01/11 03:53:52;;;;;;;18.42;8.13;;;;;;;16.55;42.35;155470.72;1606824;88;21258;-66
2021/01/11 03:56:24;;;;;;;19.70;8.48;;;;;;;16.59;42.35;155481.22;1644802;87;21187;-66
2021/01/11 03:58:57;;;;;;;18.62;9.68;;;;;;;16.63;42.30;155491.78;1602615;88;21264;-65
2021/01/11 04:01:30;;;;;;;21.37;9.85;;;;;;;16.67;42.52;155502.28;1596756;89;21353;-66
2021/01/11 04:04:03;;;;;;;18.67;8.85;;;;;;;16.81;42.87;155540.55;1586850;89;21737;-65
2021/01/11 04:06:36;;;;;;;18.52;9.13;;;;;;;17.18;42.65;155638.12;1563718;89;21415;-65
2021/01/11 04:09:08;;;;;;;19.48;9.03;;;;;;;17.24;41.69;155653.91;1619531;87;21210;-65
2021/01/11 04:11:40;;;;;;;18.60;9.95;;;;;;;17.10;42.32;155615.69;1602939;89;21253;-66
2021/01/11 04:14:14;;;;;;;19.95;10.03;;;;;;;17.07;42.67;155607.77;1630309;87;21721;-65
2021/01/11 04:16:46;;;;;;;16.82;9.48;;;;;;;17.03;42.77;155597.20;1619395;87;21210;-66
2021/01/11 04:19:19;;;;;;;22.98;10.03;;;;;;;17.10;42.71;155615.69;1633526;87;21251;-66
2021/01/11 04:21:52;;;;;;;21.00;10.18;;;;;;;17.12;43.05;155622.27;1636254;87;21278;-65
2021/01/11 04:24:24;;;;;;;17.32;9.18;;;;;;;17.44;42.76;155706.70;1624443;87;21191;-66
2021/01/11 04:26:57;;;;;;;20.85;9.73;;;;;;;17.55;42.73;155737.06;1625887;87;21562;-64
2021/01/11 04:29:29;;;;;;;21.05;9.45;;;;;;;17.58;42.36;155744.98;1638736;87;21409;-65
2021/01/11 04:32:02;;;;;;;20.90;9.98;;;;;;;17.62;42.59;155755.50;1636017;87;21235;-69
2021/01/11 04:34:34;;;;;;;19.65;9.70;;;;;;;17.69;42.68;155774.00;1640232;87;21215;-64
2021/01/11 04:37:10;;;;;;;23.12;9.48;;;;;;;17.73;42.75;155784.53;1605283;88;21749;-64
2021/01/11 04:39:42;;;;;;;19.80;9.83;;;;;;;17.80;42.78;155803.02;1626801;87;21262;-65
2021/01/11 04:42:17;;;;;;;22.15;9.83;;;;;;;17.89;42.81;155825.41;1603648;88;21274;-68
2021/01/11 04:44:50;;;;;;;25.57;11.48;;;;;;;17.98;42.78;155850.50;1627616;87;21191;-65
2021/01/11 04:47:26;;;;;;;33.42;12.23;;;;;;;18.08;42.79;155876.87;1623009;87;21297;-64
2021/01/11 04:49:59;;;;;;;28.42;12.45;;;;;;;18.12;42.63;155887.45;1623805;87;21543;-64
2021/01/11 04:52:33;;;;;;;26.42;12.45;;;;;;;18.14;42.50;155892.73;1597568;89;21228;-65
2021/01/11 04:55:07;;;;;;;28.00;12.37;;;;;;;18.16;42.71;155898.03;1600001;88;21411;-63
2021/01/11 04:57:52;;;;;;;34.67;13.95;;;;;;;18.43;42.20;155970.66;1604720;89;21275;-67
2021/01/11 05:00:28;;;;;;;47.45;18.62;;;;;;;18.29;42.46;155932.34;1598962;88;21321;-66
2021/01/11 05:03:09;;;;;;;70.60;23.77;;;;;;;18.24;42.58;155919.19;1599391;88;21178;-66
2021/01/11 05:05:46;;;;;;;58.48;22.67;;;;;;;18.31;42.36;155937.64;1599939;88;21729;-63
2021/01/11 05:08:19;;;;;;;53.38;22.32;;;;;;;18.29;42.29;155933.69;1600043;89;21388;-64
2021/01/11 05:10:51;;;;;;;52.85;22.37;;;;;;;18.31;42.31;155937.64;1559812;89;21194;-65
2021/01/11 05:13:24;;;;;;;51.00;21.77;;;;;;;18.37;42.28;155953.50;1599601;89;21739;-67
2021/01/11 05:15:58;;;;;;;58.25;23.85;;;;;;;18.35;42.04;155949.52;1599659;88;21202;-67
2021/01/11 05:18:33;;;;;;;51.58;22.30;;;;;;;18.32;42.26;155940.28;1600366;89;21364;-67
2021/01/11 05:21:06;;;;;;;43.95;20.35;;;;;;;18.65;41.59;156027.39;1599615;88;21222;-75
2021/01/11 05:23:39;;;;;;;44.03;19.65;;;;;;;18.64;40.94;156024.75;1656553;85;21776;-70
2021/01/11 05:26:15;;;;;;;49.70;21.97;;;;;;;18.49;40.84;155985.19;1652199;85;21271;-68
2021/01/11 05:28:49;;;;;;;46.70;19.95;;;;;;;18.09;41.67;155879.53;1647662;85;21231;-69
2021/01/11 05:31:23;;;;;;;50.58;22.00;;;;;;;18.04;42.16;155866.36;1646938;85;21277;-71
2021/01/11 05:33:56;;;;;;;54.60;24.67;;;;;;;18.14;42.20;155892.73;1645916;85;21832;-69
2021/01/11 05:36:28;;;;;;;58.23;22.70;;;;;;;18.27;42.24;155928.41;1646813;85;21274;-66
2021/01/11 05:39:06;;;;;;;51.68;21.77;;;;;;;18.34;42.11;155946.88;1647172;85;21860;-66
2021/01/11 05:41:42;;;;;;;52.70;24.02;;;;;;;18.39;41.94;155960.08;1646519;87;21464;-67
2021/01/11 05:44:16;;;;;;;74.65;36.15;;;;;;;18.42;42.05;155966.67;1645830;85;21229;-71
2021/01/11 05:46:49;;;;;;;61.45;27.65;;;;;;;18.46;42.14;155978.55;1646596;85;21183;-68
2021/01/11 05:49:21;;;;;;;67.53;30.23;;;;;;;18.54;42.31;155998.36;1646652;85;21278;-68
2021/01/11 05:51:54;;;;;;;54.98;22.73;;;;;;;18.62;42.19;156019.52;1646445;85;21202;-67
2021/01/11 05:54:30;;;;;;;48.83;22.07;;;;;;;18.68;41.85;156035.33;1644572;85;21817;-67
2021/01/11 05:57:06;;;;;;;48.28;20.60;;;;;;;18.72;42.03;156045.91;1627749;85;21254;-71
2021/01/11 05:59:39;;;;;;;49.80;20.10;;;;;;;18.73;42.03;156048.56;1627370;86;21305;-69
2021/01/11 06:02:13;;;;;;;52.62;20.88;;;;;;;18.74;42.14;156051.19;1605919;87;21294;-67
2021/01/11 06:04:46;;;;;;;46.55;21.30;;;;;;;18.62;42.28;156019.52;1626944;87;21242;-71
2021/01/11 06:07:18;;;;;;;52.08;21.27;;;;;;;18.87;42.10;156085.48;1627037;86;21285;-68
2021/01/11 06:13:31;;;;;;;48.90;19.62;;;;;;;18.96;42.22;156110.59;1627678;88;21389;-70
2021/01/11 06:19:42;;;;;;;40.35;18.80;;;;;;;19.09;42.04;156146.28;1628564;87;21162;-68
2021/01/11 06:22:15;;;;;;;43.42;19.57;;;;;;;19.02;41.67;156126.47;1627725;87;21233;-68
2021/01/11 06:24:47;;;;;;;42.27;20.23;;;;;;;18.84;41.12;156077.59;1628628;87;21411;-71
2021/01/11 06:27:20;;;;;;;48.73;20.23;;;;;;;18.60;41.37;156014.22;1628465;87;21436;-70
2021/01/11 06:29:54;;;;;;;42.95;20.45;;;;;;;18.51;41.76;155990.47;1627877;87;21784;-68
2021/01/11 06:32:27;;;;;;;46.95;19.27;;;;;;;18.47;42.06;155979.89;1628171;87;21237;-70
2021/01/11 06:35:00;;;;;;;52.93;22.17;;;;;;;18.59;42.28;156011.58;1629073;86;21753;-69
2021/01/11 06:37:33;;;;;;;44.53;20.00;;;;;;;18.84;42.10;156078.89;1629154;86;22079;-70
2021/01/11 06:43:55;;;;;;;40.40;19.23;;;;;;;18.93;42.12;156101.36;1628083;87;21242;-68
2021/01/11 06:46:42;;;;;;;50.05;20.88;;;;;;;18.86;41.98;156084.19;1606663;88;21337;-66
2021/01/11 06:49:12;;;;;;;43.78;19.50;;;;;;;18.91;42.22;156097.41;1627938;85;21721;-68
2021/01/11 06:59:16;;;;;;;45.95;19.60;;;;;;;18.81;42.57;156069.66;1649333;87;21249;-69
2021/01/11 07:01:50;;;;;;;42.17;20.20;;;;;;;20.08;41.98;156409.27;1655097;87;21388;-70
2021/01/11 07:04:38;;;;;;;45.63;20.40;;;;;;;19.27;42.44;156192.50;1654259;87;21467;-67
2021/01/11 07:07:10;;;;;;;45.78;21.23;;;;;;;19.33;42.40;156208.39;1654473;87;21388;-69
2021/01/11 07:09:55;;;;;;;44.88;19.73;;;;;;;19.62;41.91;156284.98;1631896;85;21202;-69
2021/01/11 07:12:28;;;;;;;41.77;21.12;;;;;;;19.50;41.75;156254.62;1652890;87;21376;-67
2021/01/11 07:15:03;;;;;;;66.57;40.33;;;;;;;19.47;42.05;156245.39;1653071;85;21404;-64
2021/01/11 07:17:48;;;;;;;59.83;32.90;;;;;;;19.43;41.93;156234.80;1652956;85;21353;-67
2021/01/11 07:20:27;;;;;;;52.45;26.17;;;;;;;19.31;42.05;156203.09;1653349;85;21384;-68
2021/01/11 07:23:00;;;;;;;94.50;49.55;;;;;;;19.42;41.81;156232.16;1652717;85;21659;-69
2021/01/11 07:25:32;;;;;;;55.03;27.42;;;;;;;19.39;41.74;156225.56;1653656;85;21186;-69
2021/01/11 07:28:06;;;;;;;47.00;23.45;;;;;;;19.40;42.05;156228.22;1653563;86;21416;-69
2021/01/11 07:30:38;;;;;;;40.25;18.57;;;;;;;19.61;41.84;156283.69;1652914;85;21389;-67
2021/01/11 07:33:15;;;;;;;53.20;29.32;;;;;;;19.63;41.47;156287.64;1653924;85;21443;-68
2021/01/11 07:35:48;;;;;;;36.58;19.32;;;;;;;19.62;41.65;156286.34;1653150;85;21706;-71
2021/01/11 07:38:21;;;;;;;37.88;18.55;;;;;;;19.66;41.52;156296.92;1653618;85;21541;-69
2021/01/11 07:41:00;;;;;;;36.60;16.73;;;;;;;19.66;41.58;156296.92;1654185;86;21801;-69
2021/01/11 07:43:33;;;;;;;40.75;18.92;;;;;;;19.73;41.71;156314.11;1652771;85;21954;-70
2021/01/11 07:46:05;;;;;;;39.65;18.85;;;;;;;19.80;41.68;156332.58;1653927;85;21412;-69
2021/01/11 07:48:38;;;;;;;44.73;20.37;;;;;;;19.89;41.73;156357.72;1653614;85;21246;-71
2021/01/11 07:51:10;;;;;;;37.83;19.00;;;;;;;19.97;41.73;156378.89;1653453;85;21476;-72
2021/01/11 07:53:43;;;;;;;46.20;22.40;;;;;;;19.91;41.13;156361.66;1653158;85;21345;-72
2021/01/11 07:56:18;;;;;;;49.58;23.83;;;;;;;19.80;41.23;156332.58;1653465;85;21235;-67
2021/01/11 07:58:53;;;;;;;46.60;23.67;;;;;;;19.73;40.96;156315.41;1631427;87;21213;-67
2021/01/11 08:01:26;;;;;;;44.33;21.30;;;;;;;19.59;40.90;156278.39;1653338;85;21276;-66
2021/01/11 08:03:59;;;;;;;39.42;20.75;;;;;;;19.40;40.12;156228.22;1653474;85;21262;-71
2021/01/11 08:06:51;;;;;;;44.90;22.05;;;;;;;19.25;41.06;156188.56;1653788;85;21435;-71
2021/01/11 08:09:31;;;;;;;38.00;17.52;;;;;;;19.24;41.07;156185.92;1653361;85;21864;-74
2021/01/11 08:12:17;;;;;;;40.15;17.55;;;;;;;19.15;41.25;156162.16;1653236;86;21524;-73
2021/01/11 08:14:51;;;;;;;34.18;16.85;;;;;;;19.24;41.53;156185.92;1653199;85;21380;-76
2021/01/11 08:17:27;;;;;;;29.65;16.05;;;;;;;19.26;41.51;156191.22;1652368;85;21376;-77
2021/01/11 08:20:00;;;;;;;34.75;16.25;;;;;;;21.52;38.60;156790.25;1652791;85;21932;-75
2021/01/11 08:22:36;;;;;;;39.53;19.25;;;;;;;19.50;40.37;156253.33;1653396;86;21855;-69
2021/01/11 08:25:10;;;;;;;34.38;16.95;;;;;;;19.12;41.65;156154.22;1652368;87;21206;-74
2021/01/11 08:27:49;;;;;;;32.75;15.90;;;;;;;19.16;42.08;156164.80;1654014;85;21360;-77
2021/01/11 08:30:24;;;;;;;39.73;16.48;;;;;;;19.30;41.92;156201.80;1653886;85;21964;-72
2021/01/11 08:32:56;;;;;;;33.60;16.00;;;;;;;19.36;42.01;156217.62;1653267;85;21364;-69
2021/01/11 08:35:30;;;;;;;30.92;15.55;;;;;;;19.53;41.54;156262.56;1595733;86;21809;-70
2021/01/11 08:38:05;;;;;;;29.65;15.08;;;;;;;19.53;41.85;156262.56;1652512;85;21250;-68
2021/01/11 08:40:38;;;;;;;32.03;15.55;;;;;;;19.48;41.60;156248.03;1653857;85;21706;-67
2021/01/11 08:43:25;;;;;;;56.00;18.00;;;;;;;19.40;41.38;156228.22;1653770;86;21852;-68
2021/01/11 08:45:57;;;;;;;35.95;17.52;;;;;;;19.32;41.73;156205.75;1652650;85;21388;-69
2021/01/11 08:48:31;;;;;;;36.00;17.27;;;;;;;19.30;41.83;156200.44;1631784;86;21206;-69
2021/01/11 08:51:05;;;;;;;41.28;19.02;;;;;;;19.36;41.85;156216.33;1653098;85;21384;-69
2021/01/11 08:53:41;;;;;;;37.42;17.20;;;;;;;19.35;42.00;156214.97;1653621;85;21381;-70
2021/01/11 08:56:17;;;;;;;41.30;17.30;;;;;;;19.76;41.82;156323.34;1653381;86;21397;-69
2021/01/11 08:58:50;;;;;;;31.77;16.62;;;;;;;19.66;42.08;156296.92;1653431;86;21365;-70
2021/01/11 09:01:27;;;;;;;30.97;14.68;;;;;;;19.80;42.12;156333.89;1652839;86;21214;-68
2021/01/11 09:04:01;;;;;;;31.80;16.20;;;;;;;19.94;42.10;156370.91;1654567;85;21476;-67
2021/01/11 09:06:47;;;;;;;38.42;21.87;;;;;;;19.94;40.78;156369.59;1652756;85;21250;-68
2021/01/11 09:09:28;;;;;;;30.25;14.83;;;;;;;19.80;41.32;156333.89;1653138;86;21223;-71
2021/01/11 09:12:08;;;;;;;27.02;14.25;;;;;;;19.78;41.48;156327.30;1652853;85;21270;-69
2021/01/11 09:14:55;;;;;;;31.90;14.70;;;;;;;19.79;41.36;156329.94;1653421;85;21345;-69
2021/01/11 09:17:32;;;;;;;29.45;14.03;;;;;;;19.80;41.81;156332.58;1653485;85;21416;-70
2021/01/11 09:20:09;;;;;;;27.22;12.90;;;;;;;19.78;40.40;156328.64;1653957;85;21476;-70
2021/01/11 09:22:43;;;;;;;24.87;12.33;;;;;;;19.69;41.26;156304.81;1642655;86;21357;-72
2021/01/11 09:25:16;;;;;;;30.20;13.58;;;;;;;19.57;41.73;156271.81;1653380;85;21289;-75
2021/01/11 09:27:49;;;;;;;26.23;13.48;;;;;;;19.67;41.75;156298.22;1653574;85;21277;-71
2021/01/11 09:30:22;;;;;;;23.70;11.78;;;;;;;19.73;41.91;156314.11;1653502;85;21432;-74
2021/01/11 09:32:59;;;;;;;25.30;11.68;;;;;;;19.88;41.84;156355.06;1654336;85;21310;-74
2021/01/11 09:35:34;;;;;;;36.73;12.58;;;;;;;20.04;41.92;156397.38;1653682;85;21448;-68
2021/01/11 09:38:09;;;;;;;27.10;13.98;;;;;;;20.01;42.04;156390.78;1653409;85;21266;-70
2021/01/11 09:40:43;;;;;;;26.15;12.28;;;;;;;19.92;40.89;156365.61;1653562;85;21392;-67
2021/01/11 09:43:17;;;;;;;25.55;12.37;;;;;;;19.88;41.33;156355.06;1654112;85;21273;-65
2021/01/11 09:45:50;;;;;;;30.05;13.35;;;;;;;19.82;41.52;156337.87;1653411;85;21210;-68
2021/01/11 09:48:24;;;;;;;31.50;15.58;;;;;;;19.70;41.24;156306.17;1653189;85;21234;-66
2021/01/11 09:51:00;;;;;;;30.25;14.10;;;;;;;19.74;41.27;156318.06;1653358;85;21404;-73
2021/01/11 09:53:35;;;;;;;27.22;12.30;;;;;;;19.55;41.54;156267.86;1653700;85;21392;-68
2021/01/11 09:56:14;;;;;;;26.02;14.23;;;;;;;19.63;41.86;156287.64;1652528;85;21302;-73
2021/01/11 09:58:47;;;;;;;28.67;12.98;;;;;;;19.54;42.09;156265.22;1630816;85;21273;-74
2021/01/11 10:01:22;;;;;;;28.42;13.72;;;;;;;19.54;42.29;156263.88;1654055;85;21317;-78
2021/01/11 10:03:55;;;;;;;24.30;13.48;;;;;;;19.75;41.86;156320.69;1653798;86;21440;-68
2021/01/11 10:06:28;;;;;;;25.55;12.25;;;;;;;19.58;41.45;156275.75;1653238;87;21266;-67
2021/01/11 10:09:02;;;;;;;26.68;13.08;;;;;;;19.51;42.06;156257.28;1653164;85;21373;-66
2021/01/11 10:11:35;;;;;;;27.62;13.38;;;;;;;19.59;42.01;156277.09;1653528;85;21456;-67
2021/01/11 10:14:08;;;;;;;23.47;11.78;;;;;;;19.69;41.40;156303.52;1654213;85;21416;-66
2021/01/11 10:16:42;;;;;;;29.55;14.85;;;;;;;19.64;41.94;156291.63;1653436;85;21243;-67
2021/01/11 10:19:22;;;;;;;32.83;13.40;;;;;;;19.65;42.15;156294.28;1653620;85;21388;-68
2021/01/11 10:21:55;;;;;;;24.02;12.35;;;;;;;19.67;42.25;156299.56;1653324;85;21309;-66
2021/01/11 10:24:27;;;;;;;30.10;13.72;;;;;;;19.73;42.18;156315.41;1652366;85;22438;-64
2021/01/11 10:27:00;;;;;;;23.38;12.60;;;;;;;19.82;42.00;156339.19;1654125;86;21350;-65
2021/01/11 10:29:32;;;;;;;23.57;11.95;;;;;;;19.76;41.58;156322.00;1657893;86;21293;-64
2021/01/11 10:32:05;;;;;;;23.75;12.37;;;;;;;19.59;40.77;156278.39;1657878;86;21203;-64
2021/01/11 10:34:37;;;;;;;23.30;11.78;;;;;;;19.40;41.46;156226.86;1655393;86;21689;-65
2021/01/11 10:37:10;;;;;;;23.10;11.55;;;;;;;19.40;41.96;156226.86;1654921;86;21686;-65
2021/01/11 10:39:43;;;;;;;24.27;11.22;;;;;;;19.61;41.43;156282.39;1661284;86;21233;-64
2021/01/11 10:42:15;;;;;;;24.87;12.05;;;;;;;19.43;42.03;156236.16;1655242;86;21222;-64
2021/01/11 10:44:48;;;;;;;26.33;12.93;;;;;;;19.47;41.96;156246.69;1655169;86;21254;-65
2021/01/11 10:47:20;;;;;;;31.75;13.60;;;;;;;19.56;42.13;156270.45;1655294;87;21203;-64
2021/01/11 10:49:53;;;;;;;22.62;11.83;;;;;;;19.78;41.95;156328.64;1654856;86;21221;-65
2021/01/11 10:52:25;;;;;;;24.95;12.70;;;;;;;19.70;42.00;156307.47;1642134;86;21215;-66
2021/01/11 10:54:58;;;;;;;20.20;10.50;;;;;;;19.69;41.81;156304.81;1654803;86;21258;-65
2021/01/11 10:57:30;;;;;;;25.62;12.20;;;;;;;19.58;42.19;156275.75;1654443;87;21246;-65
2021/01/11 11:00:04;;;;;;;23.25;11.65;;;;;;;19.67;41.85;156298.22;1654828;86;21376;-65
2021/01/11 11:02:38;;;;;;;28.92;12.45;;;;;;;19.73;41.91;156314.11;1654823;86;21409;-64
2021/01/11 11:05:11;;;;;;;24.90;12.05;;;;;;;19.65;40.92;156292.94;1654989;86;21364;-65
2021/01/11 11:07:43;;;;;;;29.15;12.85;;;;;;;19.61;41.93;156283.69;1640693;86;21556;-65
2021/01/11 11:10:16;;;;;;;26.50;13.05;;;;;;;19.71;42.14;156310.11;1657325;86;21376;-65
2021/01/11 11:12:49;;;;;;;24.07;11.83;;;;;;;19.80;41.61;156332.58;1655019;86;21353;-63
2021/01/11 11:15:21;;;;;;;25.00;12.20;;;;;;;19.75;40.94;156320.69;1654939;87;21262;-63
2021/01/11 11:17:54;;;;;;;24.60;11.88;;;;;;;19.67;41.63;156299.56;1655270;86;21489;-65
2021/01/11 11:20:27;;;;;;;24.75;11.70;;;;;;;19.62;41.79;156286.34;1659230;86;21876;-64
2021/01/11 11:23:00;;;;;;;23.02;11.65;;;;;;;19.66;41.55;156295.58;1657962;86;21737;-64
2021/01/11 11:25:32;;;;;;;23.85;12.23;;;;;;;19.66;41.74;156296.92;1654482;86;21345;-64
2021/01/11 11:28:04;;;;;;;21.75;10.48;;;;;;;19.78;40.92;156328.64;1654665;86;21345;-64
2021/01/11 11:30:37;;;;;;;22.73;12.37;;;;;;;19.82;41.38;156337.87;1658207;86;21171;-64
2021/01/11 11:33:09;;;;;;;22.70;11.85;;;;;;;19.83;41.45;156341.83;1655224;87;21222;-65
2021/01/11 11:35:43;;;;;;;23.32;11.43;;;;;;;19.85;40.97;156345.83;1654968;86;21215;-65
2021/01/11 11:38:15;;;;;;;23.38;12.10;;;;;;;19.76;41.37;156322.00;1655061;86;21264;-64
2021/01/11 11:40:48;;;;;;;22.82;11.65;;;;;;;19.66;41.87;156296.92;1655255;86;21242;-66
2021/01/11 11:43:20;;;;;;;23.65;11.85;;;;;;;19.87;41.60;156351.06;1654847;87;21356;-65
2021/01/11 11:45:52;;;;;;;25.17;12.55;;;;;;;19.96;41.57;156374.89;1654307;86;21238;-66
2021/01/11 11:48:25;;;;;;;22.77;12.03;;;;;;;19.95;41.69;156373.55;1628262;88;21420;-65
2021/01/11 11:50:57;;;;;;;20.50;11.15;;;;;;;20.05;41.06;156400.03;1653234;86;21229;-68
2021/01/11 11:53:30;;;;;;;20.30;10.82;;;;;;;19.95;40.55;156373.55;1656848;86;21197;-66
2021/01/11 11:56:02;;;;;;;22.58;11.15;;;;;;;19.92;40.72;156364.31;1654554;86;21729;-70
2021/01/11 11:58:34;;;;;;;25.90;12.95;;;;;;;19.83;40.91;156340.53;1652187;85;21448;-69
2021/01/11 12:01:06;;;;;;;24.25;11.63;;;;;;;19.78;41.71;156328.64;1652495;85;21428;-67
2021/01/11 12:03:39;;;;;;;27.95;12.43;;;;;;;19.87;41.54;156352.42;1653715;86;21344;-67